createdAt,value
2023-04-19T00:00:21.211Z,3.15
2023-04-19T00:02:49.650Z,3.25
2023-04-19T00:05:16.638Z,3.30
2023-04-19T00:07:43.629Z,3.22
2023-04-19T00:10:10.626Z,3.60
2023-04-19T00:12:37.525Z,3.45
2023-04-19T00:15:04.812Z,3.20
2023-04-19T00:17:32.132Z,3.35
2023-04-19T00:19:59.133Z,3.55
2023-04-19T00:22:26.917Z,3.58
2023-04-19T00:24:54.108Z,3.10
2023-04-19T00:27:21.102Z,3.17
2023-04-19T00:29:47.946Z,2.63
2023-04-19T00:32:16.287Z,3.67
2023-04-19T00:34:43.085Z,3.78
2023-04-19T00:37:11.224Z,3.30
2023-04-19T00:39:38.161Z,4.13
2023-04-19T00:42:05.008Z,3.80
2023-04-19T00:44:31.869Z,3.35
2023-04-19T00:47:00.052Z,3.45
2023-04-19T00:49:27.816Z,3.45
2023-04-19T00:51:54.627Z,3.72
2023-04-19T00:54:21.886Z,4.03
2023-04-19T00:56:48.595Z,4.57
2023-04-19T00:59:16.863Z,4.70
2023-04-19T01:01:43.869Z,3.50
2023-04-19T01:04:11.079Z,3.22
2023-04-19T01:06:40.423Z,4.07
2023-04-19T01:09:07.468Z,4.00
2023-04-19T01:11:34.416Z,4.18
2023-04-19T01:14:01.524Z,3.85
2023-04-19T01:16:28.733Z,4.50
2023-04-19T01:18:55.817Z,4.43
2023-04-19T01:21:22.705Z,3.30
2023-04-19T01:23:49.466Z,3.50
2023-04-19T01:26:16.518Z,3.65
2023-04-19T01:28:43.447Z,3.25
2023-04-19T01:31:10.310Z,4.45
2023-04-19T01:33:37.182Z,3.40
2023-04-19T01:36:04.815Z,3.05
2023-04-19T01:38:31.700Z,3.85
2023-04-19T01:40:58.763Z,3.05
2023-04-19T01:43:32.077Z,3.85
2023-04-19T01:45:58.862Z,3.50
2023-04-19T01:48:25.831Z,3.90
2023-04-19T01:50:52.658Z,3.50
2023-04-19T01:53:19.623Z,3.72
2023-04-19T01:55:46.374Z,4.35
2023-04-19T01:58:13.218Z,3.63
2023-04-19T02:00:40.388Z,3.58
2023-04-19T02:03:07.384Z,3.40
2023-04-19T02:05:34.371Z,3.58
2023-04-19T02:08:01.934Z,3.85
2023-04-19T02:10:28.706Z,4.20
2023-04-19T02:12:55.560Z,3.80
2023-04-19T02:15:22.385Z,3.22
2023-04-19T02:17:49.679Z,3.03
2023-04-19T02:20:16.541Z,3.83
2023-04-19T02:22:44.170Z,3.45
2023-04-19T02:25:11.209Z,3.22
2023-04-19T02:27:37.996Z,3.55
2023-04-19T02:30:05.301Z,3.22
2023-04-19T02:32:32.574Z,4.22
2023-04-19T02:34:59.630Z,3.33
2023-04-19T02:37:26.440Z,4.35
2023-04-19T02:39:53.628Z,3.67
2023-04-19T02:42:21.022Z,3.38
2023-04-19T02:44:47.892Z,3.55
2023-04-19T02:47:14.752Z,3.72
2023-04-19T02:49:42.878Z,3.65
2023-04-19T02:52:10.361Z,3.60
2023-04-19T02:54:37.282Z,3.72
2023-04-19T02:57:04.188Z,4.00
2023-04-19T02:59:31.105Z,4.95
2023-04-19T03:01:58.076Z,4.28
2023-04-19T03:04:25.169Z,4.35
2023-04-19T03:06:52.997Z,5.22
2023-04-19T03:09:19.806Z,5.00
2023-04-19T03:11:46.558Z,4.93
2023-04-19T03:14:13.460Z,4.13
2023-04-19T03:16:41.031Z,4.70
2023-04-19T03:19:07.945Z,4.93
2023-04-19T03:21:34.913Z,4.68
2023-04-19T03:24:02.168Z,4.78
2023-04-19T03:26:29.000Z,5.45
2023-04-19T03:28:55.844Z,4.88
2023-04-19T03:31:22.814Z,3.67
2023-04-19T03:33:49.722Z,4.88
2023-04-19T03:36:16.893Z,6.47
2023-04-19T03:38:44.670Z,6.72
2023-04-19T03:41:21.952Z,5.25
2023-04-19T03:43:48.661Z,4.45
2023-04-19T03:46:15.579Z,4.68
2023-04-19T03:48:42.498Z,4.68
2023-04-19T03:51:09.380Z,3.17
2023-04-19T03:53:37.122Z,2.70
2023-04-19T03:56:04.047Z,3.08
2023-04-19T03:58:30.958Z,3.10
2023-04-19T04:00:59.186Z,2.60
2023-04-19T04:03:26.573Z,2.70
2023-04-19T04:05:56.631Z,2.90
2023-04-19T04:08:23.410Z,2.60
2023-04-19T04:10:50.215Z,2.30
2023-04-19T04:13:16.998Z,2.33
2023-04-19T04:15:43.834Z,2.72
2023-04-19T04:18:11.547Z,2.50
2023-04-19T04:20:38.233Z,2.10
2023-04-19T04:23:05.107Z,1.92
2023-04-19T04:25:33.248Z,2.25
2023-04-19T04:28:00.218Z,1.98
2023-04-19T04:30:27.975Z,2.15
2023-04-19T04:32:58.259Z,2.03
2023-04-19T04:35:25.475Z,1.80
2023-04-19T04:37:54.130Z,2.40
2023-04-19T04:40:21.681Z,2.13
2023-04-19T04:42:48.903Z,2.10
2023-04-19T04:45:18.565Z,2.00
2023-04-19T04:47:46.661Z,1.80
2023-04-19T04:50:13.406Z,2.00
2023-04-19T04:52:40.195Z,2.10
2023-04-19T04:55:07.573Z,2.50
2023-04-19T04:57:34.406Z,2.40
2023-04-19T05:00:01.178Z,2.50
2023-04-19T05:02:28.046Z,2.10
2023-04-19T05:04:54.837Z,2.33
2023-04-19T05:07:21.656Z,2.25
2023-04-19T05:09:48.514Z,2.15
2023-04-19T05:12:15.653Z,2.40
2023-04-19T05:14:42.414Z,2.63
2023-04-19T05:17:09.250Z,3.00
2023-04-19T05:19:36.044Z,2.60
2023-04-19T05:22:02.854Z,2.30
2023-04-19T05:24:29.585Z,2.60
2023-04-19T05:26:56.830Z,2.60
2023-04-19T05:29:23.547Z,2.50
2023-04-19T05:31:50.341Z,2.72
2023-04-19T05:34:19.063Z,2.55
2023-04-19T05:36:47.161Z,2.92
2023-04-19T05:39:14.143Z,2.15
2023-04-19T05:41:41.193Z,2.67
2023-04-19T05:44:07.881Z,3.80
2023-04-19T05:46:34.755Z,3.67
2023-04-19T05:49:01.551Z,2.80
2023-04-19T05:51:28.469Z,2.65
2023-04-19T05:53:57.295Z,2.55
2023-04-19T05:56:24.216Z,2.88
2023-04-19T05:58:50.985Z,3.72
2023-04-19T06:01:17.959Z,2.75
2023-04-19T06:03:44.943Z,3.72
2023-04-19T06:06:11.878Z,3.38
2023-04-19T06:08:38.653Z,4.53
2023-04-19T06:11:15.777Z,4.47
2023-04-19T06:13:51.514Z,4.40
2023-04-19T06:16:18.349Z,4.05
2023-04-19T06:18:45.453Z,3.85
2023-04-19T06:21:12.153Z,3.05
2023-04-19T06:23:38.851Z,3.42
2023-04-19T06:26:05.897Z,2.95
2023-04-19T06:28:32.627Z,2.88
2023-04-19T06:30:59.386Z,3.53
2023-04-19T06:33:26.248Z,3.35
2023-04-19T06:35:53.218Z,3.80
2023-04-19T06:38:19.956Z,3.55
2023-04-19T06:40:46.676Z,4.40
2023-04-19T06:43:13.473Z,3.50
2023-04-19T06:45:40.197Z,3.40
2023-04-19T06:48:06.942Z,3.53
2023-04-19T06:50:33.932Z,3.45
2023-04-19T06:53:01.181Z,4.88
2023-04-19T06:55:29.049Z,3.10
2023-04-19T06:57:55.768Z,4.78
2023-04-19T07:00:23.239Z,2.95
2023-04-19T07:02:52.414Z,3.05
2023-04-19T07:05:19.425Z,4.03
2023-04-19T07:07:46.180Z,2.95
2023-04-19T07:10:13.102Z,2.80
2023-04-19T07:12:39.892Z,3.90
2023-04-19T07:15:07.085Z,4.78
2023-04-19T07:17:36.078Z,3.97
2023-04-19T07:20:04.646Z,3.67
2023-04-19T07:22:31.421Z,3.55
2023-04-19T07:24:58.680Z,3.85
2023-04-19T07:27:26.048Z,4.30
2023-04-19T07:29:53.403Z,5.50
2023-04-19T07:32:21.059Z,4.25
2023-04-19T07:34:47.911Z,4.95
2023-04-19T07:37:14.726Z,5.20
2023-04-19T07:39:41.615Z,3.90
2023-04-19T07:42:08.515Z,4.38
2023-04-19T07:44:35.352Z,5.50
2023-04-19T07:47:02.036Z,6.10
2023-04-19T07:49:34.056Z,5.13
2023-04-19T07:52:04.681Z,4.95
2023-04-19T07:54:32.358Z,3.70
2023-04-19T07:56:59.241Z,5.15
2023-04-19T07:59:26.166Z,4.40
2023-04-19T08:01:53.028Z,3.70
2023-04-19T08:04:21.075Z,4.15
2023-04-19T08:06:48.333Z,5.10
2023-04-19T08:09:15.143Z,5.68
2023-04-19T08:11:43.260Z,4.65
2023-04-19T08:14:21.839Z,3.92
2023-04-19T08:17:22.428Z,4.45
2023-04-19T08:19:43.507Z,3.85
2023-04-19T08:22:10.757Z,3.70
2023-04-19T08:24:37.513Z,3.30
2023-04-19T08:27:04.251Z,4.43
2023-04-19T08:29:30.953Z,4.43
2023-04-19T08:31:57.700Z,4.65
2023-04-19T08:34:24.552Z,4.35
2023-04-19T08:37:03.455Z,5.15
2023-04-19T08:39:34.009Z,4.03
2023-04-19T08:42:10.911Z,4.90
2023-04-19T08:44:53.820Z,3.90
2023-04-19T08:47:32.316Z,3.88
2023-04-19T08:52:47.763Z,4.18
2023-04-19T08:55:21.403Z,3.42
2023-04-19T08:57:48.728Z,3.13
2023-04-19T09:00:15.936Z,3.80
2023-04-19T09:02:48.439Z,3.20
2023-04-19T09:05:16.441Z,3.17
2023-04-19T09:07:44.101Z,3.67
2023-04-19T09:10:13.622Z,3.33
2023-04-19T09:12:41.417Z,3.13
2023-04-19T09:15:09.360Z,3.03
2023-04-19T09:17:37.466Z,3.50
2023-04-19T09:20:06.354Z,3.13
2023-04-19T09:22:34.184Z,3.28
2023-04-19T09:27:32.953Z,2.75
2023-04-19T09:30:01.498Z,3.13
2023-04-19T09:32:29.638Z,3.00
2023-04-19T09:35:00.562Z,2.97
2023-04-19T09:39:57.201Z,3.40
2023-04-19T09:42:47.459Z,3.67
2023-04-19T09:47:41.014Z,3.17
2023-04-19T09:50:22.479Z,2.58
2023-04-19T09:52:52.808Z,3.17
2023-04-19T09:57:50.449Z,3.20
2023-04-19T10:00:17.391Z,3.35
2023-04-19T10:02:48.886Z,2.72
2023-04-19T10:05:21.311Z,2.85
2023-04-19T10:07:50.456Z,3.22
2023-04-19T10:10:20.897Z,3.00
2023-04-19T10:15:23.923Z,3.30
2023-04-19T10:17:51.393Z,3.08
2023-04-19T10:20:25.220Z,3.05
2023-04-19T10:22:52.168Z,3.22
2023-04-19T10:25:19.166Z,3.60
2023-04-19T10:27:49.187Z,3.78
2023-04-19T10:30:29.170Z,3.72
2023-04-19T10:32:58.289Z,4.10
2023-04-19T10:35:29.603Z,3.00
2023-04-19T10:38:13.928Z,3.35
2023-04-19T10:41:01.738Z,2.63
2023-04-19T10:43:31.269Z,2.72
2023-04-19T10:46:08.108Z,2.47
2023-04-19T10:48:38.729Z,2.65
2023-04-19T10:51:07.496Z,2.58
2023-04-19T10:53:53.946Z,3.00
2023-04-19T10:56:21.889Z,3.25
2023-04-19T10:59:08.182Z,3.17
2023-04-19T11:01:43.253Z,3.30
2023-04-19T11:04:12.044Z,3.05
2023-04-19T11:06:57.288Z,3.45
2023-04-19T11:09:28.735Z,3.22
2023-04-19T11:12:00.984Z,3.58
2023-04-19T11:14:31.741Z,3.17
2023-04-19T11:16:59.098Z,3.20
2023-04-19T11:19:26.118Z,3.05
2023-04-19T11:21:52.912Z,2.95
2023-04-19T11:24:20.841Z,3.15
2023-04-19T11:26:52.146Z,3.55
2023-04-19T11:29:21.970Z,3.17
2023-04-19T11:31:48.939Z,3.30
2023-04-19T11:34:15.954Z,2.63
2023-04-19T11:36:50.654Z,3.13
2023-04-19T11:39:17.777Z,2.80
2023-04-19T11:41:44.685Z,3.30
2023-04-19T11:44:21.770Z,2.72
2023-04-19T11:47:02.862Z,2.75
2023-04-19T11:49:32.399Z,2.47
2023-04-19T11:52:06.446Z,2.80
2023-04-19T11:54:33.961Z,2.72
2023-04-19T11:57:06.278Z,3.13
2023-04-19T11:59:34.990Z,2.80
2023-04-19T12:02:06.573Z,2.97
2023-04-19T12:04:33.686Z,2.92
2023-04-19T12:07:02.535Z,3.95
2023-04-19T12:09:29.401Z,3.08
2023-04-19T12:11:57.245Z,2.50
2023-04-19T12:14:24.371Z,2.90
2023-04-19T12:17:11.987Z,2.95
2023-04-19T12:19:44.651Z,2.00
2023-04-19T12:22:14.303Z,2.88
2023-04-19T12:24:41.321Z,2.17
2023-04-19T12:27:09.010Z,2.90
2023-04-19T12:29:38.988Z,3.03
2023-04-19T12:32:06.346Z,2.80
2023-04-19T12:34:33.315Z,3.17
2023-04-19T12:37:00.176Z,2.47
2023-04-19T12:39:26.962Z,2.30
2023-04-19T12:41:53.712Z,2.80
2023-04-19T12:44:20.571Z,2.50
2023-04-19T12:46:47.283Z,2.92
2023-04-19T12:49:14.265Z,2.83
2023-04-19T12:51:42.788Z,2.47
2023-04-19T12:54:09.597Z,2.80
2023-04-19T12:56:36.423Z,2.65
2023-04-19T12:59:03.177Z,2.13
2023-04-19T13:01:29.961Z,1.90
2023-04-19T13:03:59.280Z,2.30
2023-04-19T13:06:27.878Z,2.60
2023-04-19T13:08:55.149Z,2.28
2023-04-19T13:11:23.614Z,2.22
2023-04-19T13:13:52.362Z,2.33
2023-04-19T13:16:20.031Z,2.25
2023-04-19T13:18:47.404Z,2.47
2023-04-19T13:21:14.151Z,1.98
2023-04-19T13:23:44.885Z,2.05
2023-04-19T13:26:12.208Z,2.08
2023-04-19T13:28:40.189Z,2.20
2023-04-19T13:31:07.057Z,2.28
2023-04-19T13:33:34.103Z,2.50
2023-04-19T13:36:00.900Z,2.75
2023-04-19T13:38:27.704Z,2.30
2023-04-19T13:40:54.414Z,1.92
2023-04-19T13:43:21.493Z,2.50
2023-04-19T13:45:48.189Z,2.20
2023-04-19T13:48:15.066Z,2.15
2023-04-19T13:50:41.828Z,2.22
2023-04-19T13:53:08.773Z,2.15
2023-04-19T13:55:35.635Z,2.35
2023-04-19T13:58:02.402Z,2.30
2023-04-19T14:00:29.350Z,2.90
2023-04-19T14:02:56.991Z,2.33
2023-04-19T14:05:23.952Z,2.38
2023-04-19T14:07:50.751Z,2.88
2023-04-19T14:10:17.661Z,1.90
2023-04-19T14:12:45.173Z,2.20
2023-04-19T14:15:13.094Z,2.00
2023-04-19T14:17:40.080Z,2.03
2023-04-19T14:20:07.592Z,2.10
2023-04-19T14:22:35.525Z,1.67
2023-04-19T14:25:03.912Z,1.83
2023-04-19T14:27:30.739Z,2.05
2023-04-19T14:29:57.872Z,1.80
2023-04-19T14:32:27.069Z,1.80
2023-04-19T14:34:56.045Z,1.63
2023-04-19T14:37:24.531Z,1.77
2023-04-19T14:39:51.791Z,2.00
2023-04-19T14:42:21.547Z,2.67
2023-04-19T14:44:51.331Z,2.47
2023-04-19T14:47:18.110Z,2.28
2023-04-19T14:49:44.806Z,2.03
2023-04-19T14:52:11.650Z,2.20
2023-04-19T14:54:38.428Z,1.85
2023-04-19T14:57:05.209Z,2.20
2023-04-19T14:59:31.972Z,2.63
2023-04-19T15:01:58.776Z,2.15
2023-04-19T15:04:25.937Z,2.65
2023-04-19T15:06:52.852Z,2.72
2023-04-19T15:09:19.585Z,2.50
2023-04-19T15:11:46.336Z,2.78
2023-04-19T15:14:13.154Z,2.38
2023-04-19T15:16:39.966Z,2.72
2023-04-19T15:19:07.737Z,2.42
2023-04-19T15:21:34.784Z,3.05
2023-04-19T15:24:01.714Z,2.58
2023-04-19T15:26:28.463Z,2.15
2023-04-19T15:28:56.549Z,2.63
2023-04-19T15:31:25.267Z,2.65
2023-04-19T15:33:53.200Z,2.95
2023-04-19T15:36:19.960Z,2.65
2023-04-19T15:38:46.762Z,2.95
2023-04-19T15:41:13.589Z,2.78
2023-04-19T15:43:40.340Z,2.80
2023-04-19T15:46:07.125Z,2.70
2023-04-19T15:48:33.918Z,2.78
2023-04-19T15:51:01.513Z,3.13
2023-04-19T15:53:29.064Z,2.92
2023-04-19T15:55:56.754Z,2.97
2023-04-19T15:58:24.275Z,2.60
2023-04-19T16:00:51.249Z,3.05
2023-04-19T16:03:18.164Z,3.00
2023-04-19T16:05:44.942Z,3.75
2023-04-19T16:08:12.318Z,3.70
2023-04-19T16:10:39.547Z,2.67
2023-04-19T16:13:06.519Z,3.00
2023-04-19T16:15:33.405Z,3.10
2023-04-19T16:18:00.814Z,2.95
2023-04-19T16:20:27.606Z,3.20
2023-04-19T16:22:54.405Z,2.70
2023-04-19T16:25:21.372Z,3.20
2023-04-19T16:27:54.521Z,2.78
2023-04-19T16:30:22.435Z,3.30
2023-04-19T16:32:52.294Z,3.28
2023-04-19T16:35:19.116Z,2.83
2023-04-19T16:37:46.024Z,2.83
2023-04-19T16:40:15.929Z,2.67
2023-04-19T16:42:42.787Z,2.78
2023-04-19T16:45:09.686Z,3.08
2023-04-19T16:47:36.676Z,3.45
2023-04-19T16:50:06.343Z,3.40
2023-04-19T16:52:35.635Z,2.83
2023-04-19T16:55:04.482Z,2.83
2023-04-19T16:57:32.713Z,3.22
2023-04-19T16:59:59.610Z,3.63
2023-04-19T17:02:26.551Z,2.97
2023-04-19T17:04:53.865Z,3.33
2023-04-19T17:07:20.719Z,2.95
2023-04-19T17:09:47.470Z,3.42
2023-04-19T17:12:14.482Z,3.00
2023-04-19T17:14:44.661Z,2.97
2023-04-19T17:17:12.087Z,2.97
2023-04-19T17:19:38.835Z,3.00
2023-04-19T17:22:06.147Z,2.60
2023-04-19T17:24:33.963Z,2.88
2023-04-19T17:27:01.259Z,2.92
2023-04-19T17:29:28.112Z,2.85
2023-04-19T17:31:56.179Z,3.00
2023-04-19T17:34:23.310Z,3.38
2023-04-19T17:36:50.273Z,2.38
2023-04-19T17:39:18.854Z,3.00
2023-04-19T17:41:45.778Z,3.10
2023-04-19T17:44:12.690Z,2.42
2023-04-19T17:46:40.361Z,3.25
2023-04-19T17:49:07.156Z,2.78
2023-04-19T17:51:33.964Z,2.40
2023-04-19T17:54:00.840Z,3.35
2023-04-19T17:56:27.665Z,3.53
2023-04-19T17:58:54.400Z,2.55
2023-04-19T18:01:21.408Z,3.05
2023-04-19T18:03:48.377Z,2.97
2023-04-19T18:06:16.559Z,2.60
2023-04-19T18:08:46.137Z,2.75
2023-04-19T18:11:18.305Z,2.60
2023-04-19T18:13:45.426Z,3.00
2023-04-19T18:16:13.890Z,3.80
2023-04-19T18:18:40.811Z,2.90
2023-04-19T18:21:08.516Z,3.42
2023-04-19T18:23:35.297Z,3.05
2023-04-19T18:26:04.159Z,3.28
2023-04-19T18:28:31.089Z,3.55
2023-04-19T18:30:57.893Z,3.45
2023-04-19T18:33:24.664Z,3.13
2023-04-19T18:35:53.256Z,2.90
2023-04-19T18:38:23.060Z,3.15
2023-04-19T18:40:50.099Z,3.22
2023-04-19T18:43:21.555Z,3.20
2023-04-19T18:45:56.117Z,3.13
2023-04-19T18:48:28.576Z,3.45
2023-04-19T18:50:57.177Z,3.80
2023-04-19T18:53:26.945Z,3.53
2023-04-19T18:55:57.781Z,3.00
2023-04-19T18:58:26.487Z,2.85
2023-04-19T19:00:53.832Z,3.22
2023-04-19T19:03:52.510Z,2.88
2023-04-19T19:06:09.833Z,2.90
2023-04-19T19:08:36.787Z,4.07
2023-04-19T19:13:33.244Z,4.75
2023-04-19T19:16:00.061Z,3.88
2023-04-19T19:18:29.594Z,3.50
2023-04-19T19:21:02.208Z,3.40
2023-04-19T19:23:36.031Z,3.70
2023-04-19T19:26:06.364Z,3.50
2023-04-19T19:28:33.134Z,3.40
2023-04-19T19:30:59.943Z,4.07
2023-04-19T19:33:28.747Z,4.53
2023-04-19T19:35:55.857Z,4.13
2023-04-19T19:38:22.579Z,4.60
2023-04-19T19:43:19.038Z,5.03
2023-04-19T19:45:46.030Z,3.83
2023-04-19T19:48:12.929Z,3.60
2023-04-19T19:51:10.670Z,4.47
2023-04-19T19:53:26.466Z,3.00
2023-04-19T19:55:53.305Z,3.55
2023-04-19T19:58:42.953Z,2.75
2023-04-19T20:01:07.608Z,3.95
2023-04-19T20:03:37.332Z,2.97
2023-04-19T20:08:41.393Z,2.53
2023-04-19T20:11:10.698Z,2.85
2023-04-19T20:13:37.720Z,2.85
2023-04-19T20:16:04.638Z,2.95
2023-04-19T20:18:31.421Z,2.78
2023-04-19T20:20:58.928Z,2.55
2023-04-19T20:23:26.101Z,4.10
2023-04-19T20:25:53.299Z,3.20
2023-04-19T20:28:20.199Z,3.30
2023-04-19T20:30:47.038Z,4.00
2023-04-19T20:33:14.238Z,3.72
2023-04-19T20:35:42.556Z,3.67
2023-04-19T20:38:10.027Z,3.40
2023-04-19T20:40:37.438Z,4.22
2023-04-19T20:43:04.479Z,4.35
2023-04-19T20:45:31.577Z,3.28
2023-04-19T20:47:58.808Z,3.90
2023-04-19T20:50:26.093Z,3.67
2023-04-19T20:52:53.074Z,3.47
2023-04-19T20:55:19.910Z,4.55
2023-04-19T20:57:47.034Z,3.53
2023-04-19T21:00:16.807Z,3.92
2023-04-19T21:02:44.576Z,3.80
2023-04-19T21:05:11.809Z,3.67
2023-04-19T21:07:38.772Z,3.80
2023-04-19T21:10:06.563Z,3.80
2023-04-19T21:12:34.440Z,3.40
2023-04-19T21:15:01.296Z,4.15
2023-04-19T21:17:28.135Z,3.67
2023-04-19T21:19:55.070Z,3.75
2023-04-19T21:22:21.784Z,3.58
2023-04-19T21:24:48.626Z,3.67
2023-04-19T21:27:15.436Z,3.83
2023-04-19T21:29:42.158Z,3.40
2023-04-19T21:32:08.884Z,3.80
2023-04-19T21:34:35.641Z,3.70
2023-04-19T21:37:02.406Z,3.85
2023-04-19T21:39:29.253Z,3.47
2023-04-19T21:41:56.306Z,3.03
2023-04-19T21:44:23.073Z,3.88
2023-04-19T21:46:49.825Z,4.18
2023-04-19T21:49:16.784Z,3.88
2023-04-19T21:51:43.682Z,4.25
2023-04-19T21:54:10.762Z,3.38
2023-04-19T21:56:39.486Z,3.70
2023-04-19T21:59:06.288Z,3.47
2023-04-19T22:01:33.061Z,3.28
2023-04-19T22:04:00.159Z,4.30
2023-04-19T22:06:27.802Z,3.55
2023-04-19T22:08:54.609Z,3.60
2023-04-19T22:11:21.517Z,4.78
2023-04-19T22:13:48.249Z,5.30
2023-04-19T22:16:15.128Z,4.07
2023-04-19T22:18:41.940Z,3.10
2023-04-19T22:21:12.015Z,4.30
2023-04-19T22:23:38.751Z,5.38
2023-04-19T22:26:05.781Z,4.53
2023-04-19T22:28:33.898Z,4.00
2023-04-19T22:31:00.743Z,5.47
2023-04-19T22:33:27.606Z,4.90
2023-04-19T22:35:54.360Z,5.03
2023-04-19T22:38:21.352Z,4.63
2023-04-19T22:40:48.136Z,4.95
2023-04-19T22:43:14.897Z,4.18
2023-04-19T22:45:41.804Z,3.55
2023-04-19T22:48:09.032Z,4.18
2023-04-19T22:50:36.694Z,5.07
2023-04-19T22:53:03.438Z,3.88
2023-04-19T22:55:30.186Z,5.80
2023-04-19T22:57:56.981Z,4.63
2023-04-19T23:00:24.274Z,5.28
2023-04-19T23:02:51.332Z,5.65
2023-04-19T23:05:18.315Z,6.32
2023-04-19T23:07:45.420Z,6.13
2023-04-19T23:10:12.659Z,5.05
2023-04-19T23:12:39.498Z,6.60
2023-04-19T23:15:07.215Z,5.95
2023-04-19T23:17:34.768Z,6.68
2023-04-19T23:20:01.620Z,6.90
2023-04-19T23:22:28.321Z,6.22
2023-04-19T23:24:55.111Z,7.72
2023-04-19T23:27:22.181Z,5.90
2023-04-19T23:29:48.871Z,4.38
2023-04-19T23:32:15.706Z,6.72
2023-04-19T23:34:42.397Z,6.55
2023-04-19T23:37:09.163Z,6.25
2023-04-19T23:39:35.948Z,5.72
2023-04-19T23:42:02.672Z,5.07
2023-04-19T23:44:29.964Z,7.53
2023-04-19T23:46:56.898Z,5.32
2023-04-19T23:49:23.672Z,6.15
2023-04-19T23:51:53.186Z,5.80
2023-04-19T23:54:22.389Z,5.68
2023-04-19T23:56:49.779Z,5.45
2023-04-19T23:59:16.762Z,5.30
